createdAt,value
2022-12-29T00:00:31.345Z,99198.03
2022-12-29T00:03:01.114Z,99193.69
2022-12-29T00:05:30.780Z,99192.09
2022-12-29T00:08:00.404Z,99193.13
2022-12-29T00:10:30.380Z,99200.34
2022-12-29T00:13:12.398Z,99189.97
2022-12-29T00:15:44.617Z,99172.50
2022-12-29T00:18:14.222Z,99169.97
2022-12-29T00:21:08.209Z,99166.53
2022-12-29T00:23:50.253Z,99157.78
2022-12-29T00:26:33.273Z,99161.25
2022-12-29T00:29:15.726Z,99157.69
2022-12-29T00:32:09.224Z,99153.19
2022-12-29T00:34:53.924Z,99140.00
2022-12-29T00:37:43.995Z,99148.56
2022-12-29T00:40:26.117Z,99146.72
2022-12-29T00:43:08.559Z,99136.91
2022-12-29T00:45:38.204Z,99133.31
2022-12-29T00:48:10.573Z,99134.06
2022-12-29T00:50:37.607Z,99139.28
2022-12-29T00:53:07.197Z,99142.69
2022-12-29T00:55:40.357Z,99133.81
2022-12-29T00:58:09.957Z,99145.13
2022-12-29T01:00:39.571Z,99145.06
2022-12-29T01:03:11.851Z,99126.59
2022-12-29T01:05:41.594Z,99119.50
2022-12-29T01:08:11.192Z,99130.81
2022-12-29T01:10:38.150Z,99126.50
2022-12-29T01:13:08.211Z,99131.78
2022-12-29T01:15:37.786Z,99147.44
2022-12-29T01:18:07.359Z,99143.78
2022-12-29T01:20:39.528Z,99122.56
2022-12-29T01:23:09.099Z,99126.81
2022-12-29T01:25:38.761Z,99158.41
2022-12-29T01:28:09.225Z,99145.22
2022-12-29T01:30:39.294Z,99133.81
2022-12-29T01:33:08.853Z,99139.84
2022-12-29T01:35:41.113Z,99127.31
2022-12-29T01:38:10.969Z,99137.78
2022-12-29T01:40:47.334Z,99134.13
2022-12-29T01:43:17.875Z,99135.78
2022-12-29T01:45:52.298Z,99133.00
2022-12-29T01:48:22.041Z,99135.44
2022-12-29T01:50:56.415Z,99132.63
2022-12-29T01:53:30.491Z,99124.53
2022-12-29T01:56:00.213Z,99121.69
2022-12-29T01:58:34.979Z,99124.25
2022-12-29T02:01:04.646Z,99123.97
2022-12-29T02:03:35.668Z,99114.91
2022-12-29T02:06:11.739Z,99119.84
2022-12-29T02:08:42.146Z,99116.06
2022-12-29T02:11:11.989Z,99103.44
2022-12-29T02:13:41.801Z,99111.91
2022-12-29T02:16:22.211Z,99107.19
2022-12-29T02:18:58.811Z,99113.06
2022-12-29T02:22:11.890Z,99099.53
2022-12-29T02:25:06.968Z,99098.50
2022-12-29T02:28:18.444Z,99094.53
2022-12-29T02:31:02.177Z,99086.22
2022-12-29T02:33:41.323Z,99079.91
2022-12-29T02:36:15.492Z,99077.72
2022-12-29T02:38:49.238Z,99079.97
2022-12-29T02:41:24.897Z,99081.38
2022-12-29T02:43:58.508Z,99070.50
2022-12-29T02:46:35.790Z,99051.78
2022-12-29T02:49:12.620Z,99062.16
2022-12-29T02:51:48.143Z,99066.31
2022-12-29T02:54:41.678Z,99052.03
2022-12-29T02:57:16.695Z,99044.88
2022-12-29T02:59:49.226Z,99058.69
2022-12-29T03:02:32.575Z,99054.00
2022-12-29T03:05:14.103Z,99057.44
2022-12-29T03:07:48.737Z,99050.22
2022-12-29T03:10:26.179Z,99042.16
2022-12-29T03:13:13.147Z,99038.47
2022-12-29T03:15:59.536Z,99022.47
2022-12-29T03:18:42.046Z,99026.72
2022-12-29T03:21:15.148Z,99034.56
2022-12-29T03:23:48.465Z,99025.69
2022-12-29T03:26:20.970Z,99008.09
2022-12-29T03:28:57.699Z,99009.91
2022-12-29T03:31:30.466Z,99014.47
2022-12-29T03:34:03.019Z,99016.16
2022-12-29T03:36:36.951Z,99007.03
2022-12-29T03:39:13.180Z,99023.81
2022-12-29T03:41:45.543Z,99025.47
2022-12-29T03:44:16.518Z,99023.81
2022-12-29T03:46:46.806Z,99009.81
2022-12-29T03:49:19.310Z,99010.84
2022-12-29T03:51:51.710Z,99003.88
2022-12-29T03:54:21.826Z,99003.00
2022-12-29T03:56:51.659Z,98996.88
2022-12-29T03:59:31.095Z,98995.19
2022-12-29T04:02:00.841Z,99003.00
2022-12-29T04:04:33.917Z,98986.91
2022-12-29T04:07:03.527Z,98973.69
2022-12-29T04:09:34.029Z,98992.03
2022-12-29T04:12:05.852Z,98994.56
2022-12-29T04:14:37.789Z,98989.91
2022-12-29T04:17:07.368Z,98976.59
2022-12-29T04:19:39.909Z,98958.03
2022-12-29T04:22:07.122Z,98981.00
2022-12-29T04:24:37.210Z,98977.75
2022-12-29T04:27:07.478Z,98987.56
2022-12-29T04:29:55.938Z,99000.06
2022-12-29T04:32:48.390Z,98996.66
2022-12-29T04:35:21.614Z,98998.16
2022-12-29T04:37:51.810Z,98997.94
2022-12-29T04:40:21.463Z,98995.00
2022-12-29T04:42:51.260Z,98999.97
2022-12-29T04:45:21.936Z,98996.28
2022-12-29T04:47:56.044Z,99006.44
2022-12-29T04:50:51.493Z,99004.56
2022-12-29T04:53:22.518Z,99003.50
2022-12-29T04:55:53.843Z,99001.59
2022-12-29T04:58:25.728Z,99015.59
2022-12-29T05:00:56.056Z,99016.31
2022-12-29T05:03:28.424Z,99015.38
2022-12-29T05:06:01.457Z,99017.09
2022-12-29T05:08:31.099Z,99002.03
2022-12-29T05:11:03.379Z,99015.16
2022-12-29T05:13:32.943Z,99019.22
2022-12-29T05:16:03.440Z,99017.19
2022-12-29T05:18:33.297Z,99016.13
2022-12-29T05:21:05.772Z,99021.31
2022-12-29T05:23:35.331Z,99021.31
2022-12-29T05:26:09.378Z,99031.81
2022-12-29T05:29:00.944Z,99036.16
2022-12-29T05:31:30.877Z,99038.72
2022-12-29T05:34:00.812Z,99027.06
2022-12-29T05:36:38.081Z,99025.16
2022-12-29T05:39:10.588Z,99033.00
2022-12-29T05:41:40.913Z,99034.59
2022-12-29T05:44:19.091Z,99018.59
2022-12-29T05:46:56.969Z,99030.91
2022-12-29T05:49:55.721Z,99052.09
2022-12-29T05:52:46.923Z,99044.16
2022-12-29T05:55:17.170Z,99025.50
2022-12-29T05:57:50.329Z,99037.88
2022-12-29T06:00:20.912Z,99039.56
2022-12-29T06:02:50.759Z,99048.28
2022-12-29T06:05:21.632Z,99042.13
2022-12-29T06:07:53.793Z,99049.22
2022-12-29T06:10:23.668Z,99044.88
2022-12-29T06:12:58.736Z,99044.03
2022-12-29T06:15:28.420Z,99058.13
2022-12-29T06:17:58.166Z,99044.88
2022-12-29T06:20:28.504Z,99032.56
2022-12-29T06:23:00.748Z,99045.81
2022-12-29T06:25:33.201Z,99049.44
2022-12-29T06:28:03.098Z,99040.75
2022-12-29T06:30:32.698Z,99047.75
2022-12-29T06:33:02.700Z,99060.25
2022-12-29T06:35:32.333Z,99064.91
2022-12-29T06:38:05.411Z,99071.38
2022-12-29T06:40:35.021Z,99078.69
2022-12-29T06:43:34.909Z,99075.47
2022-12-29T06:46:11.383Z,99087.03
2022-12-29T06:48:43.133Z,99077.59
2022-12-29T06:51:12.761Z,99081.94
2022-12-29T06:53:44.962Z,99079.94
2022-12-29T06:56:14.569Z,99087.78
2022-12-29T06:58:44.191Z,99091.16
2022-12-29T07:01:13.825Z,99082.28
2022-12-29T07:03:45.141Z,99088.34
2022-12-29T07:06:14.830Z,99090.00
2022-12-29T07:08:47.036Z,99092.59
2022-12-29T07:11:16.668Z,99097.88
2022-12-29T07:13:46.887Z,99092.59
2022-12-29T07:16:16.520Z,99097.00
2022-12-29T07:18:46.855Z,99088.34
2022-12-29T07:21:16.433Z,99084.81
2022-12-29T07:23:48.991Z,99094.69
2022-12-29T07:26:19.601Z,99100.81
2022-12-29T07:28:49.182Z,99105.28
2022-12-29T07:31:20.374Z,99109.72
2022-12-29T07:33:50.350Z,99117.66
2022-12-29T07:36:20.232Z,99114.19
2022-12-29T07:38:52.790Z,99128.38
2022-12-29T07:41:22.407Z,99132.06
2022-12-29T07:43:52.065Z,99143.94
2022-12-29T07:46:53.821Z,99149.75
2022-12-29T07:49:24.440Z,99154.41
2022-12-29T07:51:54.019Z,99151.63
2022-12-29T07:54:26.229Z,99160.47
2022-12-29T07:56:56.208Z,99173.72
2022-12-29T07:59:25.784Z,99178.13
2022-12-29T08:01:55.504Z,99183.31
2022-12-29T08:04:25.355Z,99180.69
2022-12-29T08:06:54.940Z,99177.94
2022-12-29T08:09:27.220Z,99174.34
2022-12-29T08:11:57.522Z,99165.66
2022-12-29T08:14:27.202Z,99180.78
2022-12-29T08:16:56.839Z,99175.59
2022-12-29T08:19:26.426Z,99170.19
2022-12-29T08:21:57.002Z,99167.44
2022-12-29T08:24:29.228Z,99170.84
2022-12-29T08:27:02.973Z,99167.16
2022-12-29T08:29:36.590Z,99184.72
2022-12-29T08:32:07.293Z,99176.69
2022-12-29T08:34:37.668Z,99177.53
2022-12-29T08:37:07.541Z,99177.44
2022-12-29T08:39:39.692Z,99179.97
2022-12-29T08:42:09.290Z,99174.56
2022-12-29T08:44:38.863Z,99174.47
2022-12-29T08:47:09.119Z,99163.88
2022-12-29T08:49:38.759Z,99174.47
2022-12-29T08:52:09.237Z,99183.28
2022-12-29T08:54:41.367Z,99180.75
2022-12-29T08:57:11.095Z,99196.75
2022-12-29T08:59:51.674Z,99192.50
2022-12-29T09:02:24.491Z,99202.31
2022-12-29T09:04:54.624Z,99206.91
2022-12-29T09:07:24.203Z,99204.34
2022-12-29T09:09:56.664Z,99219.28
2022-12-29T09:12:28.193Z,99218.13
2022-12-29T09:15:01.348Z,99223.97
2022-12-29T09:17:47.169Z,99216.47
2022-12-29T09:20:18.387Z,99225.94
2022-12-29T09:22:49.352Z,99230.84
2022-12-29T09:25:24.586Z,99241.03
2022-12-29T09:27:54.242Z,99247.50
2022-12-29T09:30:24.778Z,99250.63
2022-12-29T09:32:55.503Z,99244.06
2022-12-29T09:35:25.192Z,99250.66
2022-12-29T09:37:54.790Z,99268.09
2022-12-29T09:40:31.315Z,99281.03
2022-12-29T09:43:16.265Z,99275.50
2022-12-29T09:45:48.395Z,99270.97
2022-12-29T09:48:21.694Z,99274.34
2022-12-29T09:50:54.122Z,99276.28
2022-12-29T09:53:27.243Z,99287.09
2022-12-29T09:56:02.020Z,99285.59
2022-12-29T09:58:36.744Z,99287.47
2022-12-29T10:01:08.740Z,99291.00
2022-12-29T10:03:49.412Z,99277.63
2022-12-29T10:06:22.090Z,99276.66
2022-12-29T10:08:56.105Z,99267.38
2022-12-29T10:11:33.248Z,99267.88
2022-12-29T10:14:16.282Z,99269.38
2022-12-29T10:16:52.057Z,99270.88
2022-12-29T10:19:33.707Z,99255.81
2022-12-29T10:22:11.835Z,99269.19
2022-12-29T10:24:42.403Z,99273.63
2022-12-29T10:27:17.950Z,99260.47
2022-12-29T10:29:52.169Z,99279.25
2022-12-29T10:32:30.609Z,99275.13
2022-12-29T10:35:04.006Z,99281.47
2022-12-29T10:37:39.007Z,99279.66
2022-12-29T10:40:19.709Z,99286.88
2022-12-29T10:42:54.803Z,99297.59
2022-12-29T10:45:26.961Z,99298.31
2022-12-29T10:48:00.084Z,99297.28
2022-12-29T10:50:30.489Z,99281.34
2022-12-29T10:53:03.214Z,99280.41
2022-12-29T10:55:35.917Z,99306.00
2022-12-29T10:58:10.852Z,99289.97
2022-12-29T11:00:40.546Z,99281.06
2022-12-29T11:03:30.979Z,99295.91
2022-12-29T11:06:03.982Z,99294.97
2022-12-29T11:08:39.216Z,99300.38
2022-12-29T11:11:10.238Z,99303.03
2022-12-29T11:13:51.888Z,99312.03
2022-12-29T11:16:31.807Z,99314.06
2022-12-29T11:19:01.659Z,99314.13
2022-12-29T11:21:40.666Z,99312.47
2022-12-29T11:24:24.791Z,99307.16
2022-12-29T11:26:58.460Z,99310.31
2022-12-29T11:29:32.462Z,99313.53
2022-12-29T11:32:03.012Z,99315.78
2022-12-29T11:34:36.865Z,99324.31
2022-12-29T11:37:08.338Z,99323.44
2022-12-29T11:39:41.675Z,99325.47
2022-12-29T11:42:18.061Z,99334.75
2022-12-29T11:44:51.956Z,99335.91
2022-12-29T11:47:31.670Z,99338.00
2022-12-29T11:50:03.577Z,99341.19
2022-12-29T11:52:36.137Z,99346.59
2022-12-29T11:55:07.791Z,99331.53
2022-12-29T11:57:38.288Z,99350.00
2022-12-29T12:00:19.335Z,99341.09
2022-12-29T12:02:54.035Z,99346.59
2022-12-29T12:05:28.096Z,99354.56
2022-12-29T12:08:01.446Z,99363.66
2022-12-29T12:10:33.818Z,99362.06
2022-12-29T12:13:09.831Z,99361.28
2022-12-29T12:15:47.441Z,99366.91
2022-12-29T12:18:23.099Z,99347.13
2022-12-29T12:20:58.163Z,99352.72
2022-12-29T12:23:33.413Z,99370.91
2022-12-29T12:26:07.629Z,99363.16
2022-12-29T12:28:41.593Z,99365.94
2022-12-29T12:31:21.563Z,99362.59
2022-12-29T12:33:54.898Z,99368.09
2022-12-29T12:36:36.148Z,99362.91
2022-12-29T12:39:10.866Z,99370.94
2022-12-29T12:41:48.323Z,99377.31
2022-12-29T12:44:23.954Z,99378.34
2022-12-29T12:47:19.714Z,99380.13
2022-12-29T12:50:18.674Z,99376.63
2022-12-29T12:53:13.106Z,99375.84
2022-12-29T12:55:54.370Z,99385.53
2022-12-29T12:58:31.223Z,99376.72
2022-12-29T13:01:11.224Z,99390.81
2022-12-29T13:03:51.326Z,99381.84
2022-12-29T13:06:27.566Z,99387.03
2022-12-29T13:09:18.315Z,99384.28
2022-12-29T13:11:59.117Z,99383.44
2022-12-29T13:14:39.368Z,99387.97
2022-12-29T13:17:13.595Z,99382.66
2022-12-29T13:19:51.682Z,99393.19
2022-12-29T13:22:26.790Z,99395.75
2022-12-29T13:25:06.356Z,99385.16
2022-12-29T13:27:39.203Z,99396.59
2022-12-29T13:30:13.723Z,99378.72
2022-12-29T13:32:53.326Z,99401.53
2022-12-29T13:35:37.689Z,99386.47
2022-12-29T13:38:07.712Z,99397.25
2022-12-29T13:40:42.785Z,99393.84
2022-12-29T13:43:12.438Z,99397.53
2022-12-29T13:45:43.378Z,99394.03
2022-12-29T13:48:17.657Z,99399.34
2022-12-29T13:50:54.718Z,99410.88
2022-12-29T13:53:33.793Z,99402.00
2022-12-29T13:56:08.790Z,99396.03
2022-12-29T13:58:42.830Z,99410.59
2022-12-29T14:01:14.805Z,99415.34
2022-12-29T14:03:52.973Z,99403.31
2022-12-29T14:06:29.632Z,99409.38
2022-12-29T14:09:01.239Z,99413.72
2022-12-29T14:11:35.047Z,99418.94
2022-12-29T14:14:15.925Z,99414.50
2022-12-29T14:16:46.917Z,99418.84
2022-12-29T14:19:19.924Z,99417.25
2022-12-29T14:21:58.969Z,99430.69
2022-12-29T14:24:42.801Z,99424.69
2022-12-29T14:27:48.890Z,99428.38
2022-12-29T14:30:52.556Z,99431.34
2022-12-29T14:33:23.468Z,99432.53
2022-12-29T14:35:53.977Z,99432.72
2022-12-29T14:38:28.008Z,99436.59
2022-12-29T14:41:31.390Z,99444.91
2022-12-29T14:44:03.635Z,99451.50
2022-12-29T14:46:49.064Z,99446.28
2022-12-29T14:49:22.474Z,99449.97
2022-12-29T14:51:54.311Z,99446.69
2022-12-29T14:54:50.264Z,99446.84
2022-12-29T14:57:26.670Z,99456.84
2022-12-29T14:59:58.647Z,99449.91
2022-12-29T15:02:30.436Z,99451.78
2022-12-29T15:05:03.533Z,99456.31
2022-12-29T15:07:33.424Z,99450.16
2022-12-29T15:10:09.898Z,99466.13
2022-12-29T15:12:42.011Z,99464.41
2022-12-29T15:15:22.976Z,99450.44
2022-12-29T15:17:52.570Z,99460.25
2022-12-29T15:20:28.113Z,99460.34
2022-12-29T15:23:00.012Z,99465.72
2022-12-29T15:25:32.592Z,99465.91
2022-12-29T15:28:05.584Z,99461.56
2022-12-29T15:30:35.769Z,99463.44
2022-12-29T15:33:05.380Z,99473.34
2022-12-29T15:35:36.983Z,99467.28
2022-12-29T15:38:18.055Z,99474.47
2022-12-29T15:40:50.442Z,99472.09
2022-12-29T15:43:47.000Z,99481.03
2022-12-29T15:46:17.827Z,99476.78
2022-12-29T15:48:47.565Z,99478.63
2022-12-29T15:51:22.694Z,99481.38
2022-12-29T15:53:53.874Z,99490.25
2022-12-29T15:56:26.109Z,99481.47
2022-12-29T15:58:55.936Z,99481.47
2022-12-29T16:01:30.360Z,99492.97
2022-12-29T16:04:00.949Z,99491.25
2022-12-29T16:06:35.773Z,99493.91
2022-12-29T16:09:06.862Z,99501.00
2022-12-29T16:11:41.173Z,99506.28
2022-12-29T16:14:12.955Z,99501.94
2022-12-29T16:16:43.671Z,99501.09
2022-12-29T16:19:27.955Z,99507.31
2022-12-29T16:21:57.632Z,99502.19
2022-12-29T16:24:29.482Z,99495.19
2022-12-29T16:27:05.531Z,99497.19
2022-12-29T16:29:35.240Z,99507.06
2022-12-29T16:32:05.671Z,99499.53
2022-12-29T16:34:36.612Z,99517.78
2022-12-29T16:37:07.540Z,99513.31
2022-12-29T16:39:40.369Z,99518.31
2022-12-29T16:42:40.197Z,99500.06
2022-12-29T16:45:54.376Z,99519.47
2022-12-29T16:48:25.088Z,99527.41
2022-12-29T16:50:55.118Z,99530.84
2022-12-29T16:53:28.096Z,99528.03
2022-12-29T16:55:58.695Z,99526.19
2022-12-29T16:58:32.898Z,99530.41
2022-12-29T17:01:02.669Z,99547.91
2022-12-29T17:03:37.002Z,99541.69
2022-12-29T17:06:07.020Z,99546.13
2022-12-29T17:08:43.457Z,99562.84
2022-12-29T17:11:36.818Z,99562.84
2022-12-29T17:14:08.988Z,99566.41
2022-12-29T17:16:38.555Z,99563.75
2022-12-29T17:19:08.170Z,99563.00
2022-12-29T17:21:38.177Z,99578.94
2022-12-29T17:24:11.330Z,99579.88
2022-12-29T17:26:40.906Z,99580.78
2022-12-29T17:29:16.836Z,99570.41
2022-12-29T17:31:46.403Z,99573.19
2022-12-29T17:34:16.762Z,99576.78
2022-12-29T17:36:46.342Z,99577.78
2022-12-29T17:39:15.901Z,99576.94
2022-12-29T17:41:45.552Z,99578.72
2022-12-29T17:44:21.466Z,99574.44
2022-12-29T17:46:51.783Z,99580.66
2022-12-29T17:49:21.632Z,99574.50
2022-12-29T17:51:51.200Z,99579.97
2022-12-29T17:54:25.459Z,99587.97
2022-12-29T17:56:55.488Z,99595.97
2022-12-29T17:59:27.672Z,99590.81
2022-12-29T18:01:57.307Z,99597.91
2022-12-29T18:04:26.978Z,99608.56
2022-12-29T18:06:56.531Z,99621.84
2022-12-29T18:09:26.135Z,99619.38
2022-12-29T18:11:55.709Z,99634.88
2022-12-29T18:14:27.911Z,99625.91
2022-12-29T18:16:57.495Z,99642.34
2022-12-29T18:19:30.997Z,99646.28
2022-12-29T18:22:05.255Z,99640.38
2022-12-29T18:24:34.841Z,99648.59
2022-12-29T18:27:05.326Z,99648.34
2022-12-29T18:29:37.711Z,99648.09
2022-12-29T18:32:08.073Z,99655.66
2022-12-29T18:34:37.682Z,99656.06
2022-12-29T18:37:07.253Z,99656.44
2022-12-29T18:39:37.080Z,99668.03
2022-12-29T18:42:06.946Z,99662.75
2022-12-29T18:44:39.145Z,99659.31
2022-12-29T18:47:08.810Z,99659.53
2022-12-29T18:49:38.600Z,99662.34
2022-12-29T18:52:08.318Z,99660.00
2022-12-29T18:54:37.900Z,99663.75
2022-12-29T18:57:07.931Z,99662.28
2022-12-29T18:59:41.145Z,99667.84
2022-12-29T19:02:19.155Z,99662.78
2022-12-29T19:04:52.902Z,99665.47
2022-12-29T19:07:22.919Z,99680.34
2022-12-29T19:09:52.525Z,99683.91
2022-12-29T19:12:26.552Z,99683.97
2022-12-29T19:15:02.250Z,99678.91
2022-12-29T19:17:31.841Z,99686.06
2022-12-29T19:20:01.786Z,99686.94
2022-12-29T19:22:31.373Z,99699.13
2022-12-29T19:25:00.946Z,99693.78
2022-12-29T19:27:31.794Z,99683.19
2022-12-29T19:30:04.256Z,99697.94
2022-12-29T19:32:33.821Z,99704.13
2022-12-29T19:35:03.441Z,99692.75
2022-12-29T19:37:36.333Z,99705.25
2022-12-29T19:40:07.346Z,99702.91
2022-12-29T19:42:37.137Z,99704.88
2022-12-29T19:45:10.223Z,99711.25
2022-12-29T19:47:39.905Z,99714.78
2022-12-29T19:50:12.761Z,99715.41
2022-12-29T19:52:42.343Z,99716.16
2022-12-29T19:55:13.013Z,99725.16
2022-12-29T19:57:42.630Z,99726.34
2022-12-29T20:00:16.604Z,99733.69
2022-12-29T20:02:46.313Z,99734.91
2022-12-29T20:05:16.010Z,99737.84
2022-12-29T20:07:45.795Z,99736.34
2022-12-29T20:10:16.446Z,99741.00
2022-12-29T20:12:46.105Z,99742.97
2022-12-29T20:15:18.306Z,99744.00
2022-12-29T20:18:15.583Z,99737.09
2022-12-29T20:20:37.517Z,99753.78
2022-12-29T20:23:07.130Z,99751.28
2022-12-29T20:25:45.729Z,99748.78
2022-12-29T20:28:23.426Z,99766.53
2022-12-29T20:31:04.167Z,99764.06
2022-12-29T20:33:35.052Z,99772.19
2022-12-29T20:36:09.371Z,99778.44
2022-12-29T20:38:39.397Z,99776.75
2022-12-29T20:41:09.311Z,99775.88
2022-12-29T20:43:38.922Z,99791.72
2022-12-29T20:46:11.235Z,99793.56
2022-12-29T20:48:41.847Z,99788.38
2022-12-29T20:51:11.645Z,99792.75
2022-12-29T20:53:42.454Z,99792.81
2022-12-29T20:56:16.055Z,99800.69
2022-12-29T20:59:25.801Z,99801.56
2022-12-29T21:01:38.739Z,99791.97
2022-12-29T21:04:09.068Z,99797.16
2022-12-29T21:06:38.751Z,99793.69
2022-12-29T21:09:08.920Z,99787.47
2022-12-29T21:11:38.685Z,99789.16
2022-12-29T21:14:09.164Z,99787.41
2022-12-29T21:16:41.511Z,99802.19
2022-12-29T21:19:11.115Z,99795.13
2022-12-29T21:21:40.701Z,99805.50
2022-12-29T21:24:10.542Z,99806.28
2022-12-29T21:26:40.456Z,99794.84
2022-12-29T21:29:10.041Z,99798.31
2022-12-29T21:31:42.254Z,99800.09
2022-12-29T21:34:12.392Z,99795.81
2022-12-29T21:36:42.038Z,99803.81
2022-12-29T21:39:12.816Z,99806.44
2022-12-29T21:41:42.508Z,99803.91
2022-12-29T21:44:24.551Z,99810.13
2022-12-29T21:46:56.677Z,99799.72
2022-12-29T21:49:27.889Z,99796.31
2022-12-29T21:51:57.729Z,99795.56
2022-12-29T21:54:41.741Z,99793.88
2022-12-29T21:57:15.428Z,99789.75
2022-12-29T22:00:01.439Z,99798.66
2022-12-29T22:02:46.712Z,99793.56
2022-12-29T22:05:30.550Z,99806.00
2022-12-29T22:08:12.607Z,99802.66
2022-12-29T22:10:55.705Z,99812.28
2022-12-29T22:13:25.338Z,99822.00
2022-12-29T22:15:54.938Z,99819.44
2022-12-29T22:18:27.166Z,99820.44
2022-12-29T22:20:56.733Z,99818.91
2022-12-29T22:23:26.367Z,99822.59
2022-12-29T22:25:55.937Z,99823.59
2022-12-29T22:28:25.645Z,99826.34
2022-12-29T22:30:55.275Z,99827.41
2022-12-29T22:33:27.477Z,99829.28
2022-12-29T22:35:57.041Z,99835.53
2022-12-29T22:38:26.739Z,99834.75
2022-12-29T22:41:01.197Z,99832.28
2022-12-29T22:43:31.263Z,99839.47
2022-12-29T22:46:07.701Z,99837.88
2022-12-29T22:48:40.251Z,99837.94
2022-12-29T22:51:09.901Z,99844.13
2022-12-29T22:53:40.669Z,99854.75
2022-12-29T22:56:11.956Z,99849.66
2022-12-29T22:58:42.477Z,99852.44
2022-12-29T23:01:12.590Z,99866.47
2022-12-29T23:03:45.768Z,99870.06
2022-12-29T23:06:17.215Z,99871.84
2022-12-29T23:08:48.022Z,99873.63
2022-12-29T23:11:17.682Z,99875.44
2022-12-29T23:13:47.407Z,99877.16
2022-12-29T23:16:17.991Z,99885.97
2022-12-29T23:18:51.933Z,99883.44
2022-12-29T23:21:22.309Z,99892.28
2022-12-29T23:23:58.333Z,99896.72
2022-12-29T23:26:30.392Z,99904.69
2022-12-29T23:29:00.751Z,99903.06
2022-12-29T23:31:31.577Z,99912.72
2022-12-29T23:34:04.952Z,99910.00
2022-12-29T23:36:34.874Z,99915.25
2022-12-29T23:39:04.842Z,99922.25
2022-12-29T23:41:34.432Z,99927.53
2022-12-29T23:44:06.746Z,99935.50
2022-12-29T23:46:36.949Z,99939.03
2022-12-29T23:49:09.366Z,99946.97
2022-12-29T23:51:39.132Z,99949.69
2022-12-29T23:54:08.927Z,99949.78
2022-12-29T23:56:38.507Z,99968.22
2022-12-29T23:59:08.572Z,99967.47
